createdAt,value
2019-02-18T08:37:24.700Z,27.73
2019-02-18T08:39:51.053Z,27.76
2019-02-18T08:42:17.417Z,27.34
2019-02-18T08:44:43.776Z,27.70
2019-02-18T08:47:10.124Z,28.64
2019-02-18T08:49:36.493Z,27.73
2019-02-18T08:52:02.825Z,27.10
2019-02-18T08:54:29.256Z,27.02
2019-02-18T08:56:55.596Z,26.27
2019-02-18T08:59:21.995Z,26.88
2019-02-18T09:01:48.307Z,27.15
2019-02-18T09:04:14.653Z,27.27
2019-02-18T09:06:40.998Z,27.12
2019-02-18T09:09:07.345Z,27.33
2019-02-18T09:11:33.687Z,26.65
2019-02-18T09:14:00.090Z,26.87
2019-02-18T09:16:26.432Z,26.58
2019-02-18T09:18:52.768Z,26.52
2019-02-18T09:21:19.104Z,26.72
2019-02-18T09:23:45.441Z,26.50
2019-02-18T09:26:11.783Z,26.42
2019-02-18T09:28:38.152Z,26.72
2019-02-18T09:31:04.524Z,26.66
2019-02-18T09:33:30.940Z,26.79
2019-02-18T09:35:57.299Z,26.16
2019-02-18T09:38:25.345Z,26.30
2019-02-18T09:40:51.603Z,26.47
2019-02-18T09:43:16.506Z,26.22
2019-02-18T09:45:42.842Z,26.51
2019-02-18T09:48:09.232Z,26.68
2019-02-18T09:50:35.743Z,26.54
2019-02-18T09:53:02.606Z,26.25
2019-02-18T09:55:28.470Z,26.28
2019-02-18T09:57:54.814Z,26.52
2019-02-18T10:00:21.216Z,26.52
2019-02-18T10:02:47.621Z,26.35
2019-02-18T10:05:14.100Z,25.89
2019-02-18T10:07:40.488Z,26.21
2019-02-18T10:10:06.844Z,26.46
2019-02-18T10:12:33.190Z,25.79
2019-02-18T10:14:59.521Z,26.19
2019-02-18T10:17:25.855Z,26.09
2019-02-18T10:19:52.229Z,26.48
2019-02-18T10:22:18.594Z,26.41
2019-02-18T10:24:50.487Z,26.61
2019-02-18T10:27:11.312Z,26.21
2019-02-18T10:29:37.618Z,26.51
2019-02-18T10:32:03.963Z,26.88
2019-02-18T10:34:30.336Z,26.80
2019-02-18T10:36:56.687Z,26.67
2019-02-18T10:39:23.041Z,26.69
2019-02-18T10:41:49.461Z,26.44
2019-02-18T10:44:15.785Z,26.63
2019-02-18T10:46:42.118Z,26.48
2019-02-18T10:49:18.993Z,26.33
2019-02-18T10:51:34.792Z,26.12
2019-02-18T10:54:01.155Z,26.12
2019-02-18T10:56:27.543Z,26.55
2019-02-18T10:58:53.877Z,27.07
2019-02-18T11:01:20.207Z,26.46
2019-02-18T11:03:46.600Z,26.79
2019-02-18T11:06:12.926Z,26.20
2019-02-18T11:08:39.308Z,26.44
2019-02-18T11:11:05.679Z,26.83
2019-02-18T11:13:32.035Z,26.43
2019-02-18T11:15:58.366Z,26.14
2019-02-18T11:18:24.737Z,26.60
2019-02-18T11:20:51.428Z,26.44
2019-02-18T11:23:17.773Z,26.48
2019-02-18T11:25:44.375Z,26.67
2019-02-18T11:28:10.731Z,25.89
2019-02-18T11:30:39.045Z,26.86
2019-02-18T11:33:05.950Z,26.56
2019-02-18T11:35:32.513Z,26.81
2019-02-18T11:37:58.918Z,26.52
2019-02-18T11:40:25.252Z,26.60
2019-02-18T11:42:51.629Z,26.50
2019-02-18T11:45:18.026Z,26.65
2019-02-18T11:47:44.379Z,26.92
2019-02-18T11:50:10.797Z,26.76
2019-02-18T11:52:37.714Z,26.63
2019-02-18T11:55:06.636Z,26.31
2019-02-18T11:57:33.060Z,26.37
2019-02-18T11:59:59.386Z,26.52
2019-02-18T12:02:25.741Z,26.42
2019-02-18T12:04:52.098Z,26.67
2019-02-18T12:07:18.457Z,26.75
2019-02-18T12:09:44.970Z,26.41
2019-02-18T12:12:11.349Z,26.66
2019-02-18T12:14:37.759Z,26.65
2019-02-18T12:17:04.101Z,26.87
2019-02-18T12:19:30.493Z,26.67
2019-02-18T12:21:56.900Z,26.29
2019-02-18T12:24:25.481Z,26.70
2019-02-18T12:26:53.026Z,27.08
2019-02-18T12:29:26.201Z,27.31
2019-02-18T12:31:45.758Z,27.58
2019-02-18T12:34:12.126Z,27.36
2019-02-18T12:36:38.559Z,27.40
2019-02-18T12:39:04.914Z,27.50
2019-02-18T12:41:31.254Z,26.60
2019-02-18T12:43:57.937Z,27.02
2019-02-18T12:46:24.313Z,27.26
2019-02-18T12:48:50.639Z,28.21
2019-02-18T12:51:17.006Z,27.57
2019-02-18T12:53:43.382Z,27.99
2019-02-18T12:56:09.688Z,27.01
2019-02-18T12:58:36.041Z,26.41
2019-02-18T13:01:02.446Z,26.86
2019-02-18T13:03:28.804Z,26.67
2019-02-18T13:05:55.158Z,26.75
2019-02-18T13:08:21.561Z,26.54
2019-02-18T13:10:48.003Z,28.53
2019-02-18T13:13:14.423Z,28.58
2019-02-18T13:15:40.787Z,27.37
2019-02-18T13:18:07.197Z,27.82
2019-02-18T13:20:34.473Z,27.11
2019-02-18T13:23:00.886Z,27.17
2019-02-18T13:25:27.224Z,27.44
2019-02-18T13:27:53.570Z,26.63
2019-02-18T13:30:19.967Z,26.73
2019-02-18T13:32:46.364Z,26.28
2019-02-18T13:35:12.703Z,26.15
2019-02-18T13:37:39.483Z,26.31
2019-02-18T13:40:05.822Z,26.41
2019-02-18T13:42:32.179Z,26.09
2019-02-18T13:44:58.578Z,26.72
2019-02-18T13:47:26.145Z,26.94
2019-02-18T13:49:52.500Z,26.45
2019-02-18T13:52:18.868Z,26.39
2019-02-18T13:54:45.327Z,26.87
2019-02-18T13:57:12.893Z,26.53
2019-02-18T13:59:39.283Z,25.96
2019-02-18T14:02:05.639Z,26.61
2019-02-18T14:04:32.055Z,26.25
2019-02-18T14:07:01.349Z,26.12
2019-02-18T14:09:25.849Z,25.94
2019-02-18T14:11:52.321Z,26.40
2019-02-18T14:14:18.633Z,26.64
2019-02-18T14:16:45.169Z,26.13
2019-02-18T14:19:11.517Z,25.69
2019-02-18T14:21:37.905Z,25.66
2019-02-18T14:24:04.267Z,25.69
2019-02-18T14:26:30.611Z,25.77
2019-02-18T14:28:57.014Z,26.40
2019-02-18T14:31:23.353Z,25.76
2019-02-18T14:33:49.701Z,25.95
2019-02-18T14:36:16.087Z,27.07
2019-02-18T14:38:42.415Z,26.38
2019-02-18T14:41:08.810Z,25.33
2019-02-18T14:43:35.322Z,26.21
2019-02-18T14:46:01.669Z,25.27
2019-02-18T14:48:28.042Z,26.34
2019-02-18T14:50:56.620Z,25.33
2019-02-18T14:53:20.747Z,25.51
2019-02-18T14:55:47.144Z,24.90
2019-02-18T14:58:13.472Z,25.75
2019-02-18T15:00:39.841Z,25.86
2019-02-18T15:03:06.168Z,25.31
2019-02-18T15:05:32.504Z,25.95
2019-02-18T15:07:58.835Z,26.13
2019-02-18T15:10:25.258Z,26.34
2019-02-18T15:12:51.585Z,26.40
2019-02-18T15:15:17.973Z,26.48
2019-02-18T15:17:44.306Z,25.80
2019-02-18T15:20:11.584Z,25.34
2019-02-18T15:22:37.031Z,25.06
2019-02-18T15:25:03.443Z,25.87
2019-02-18T15:27:29.742Z,25.38
2019-02-18T15:29:56.139Z,25.48
2019-02-18T15:32:22.583Z,25.74
2019-02-18T15:34:49.015Z,24.83
2019-02-18T15:37:15.399Z,25.40
2019-02-18T15:39:41.859Z,25.36
2019-02-18T15:42:08.268Z,25.69
2019-02-18T15:44:34.623Z,25.57
2019-02-18T15:47:01.026Z,25.71
2019-02-18T15:49:27.388Z,25.02
2019-02-18T15:51:53.791Z,25.57
2019-02-18T15:54:20.287Z,25.38
2019-02-18T15:56:46.668Z,25.00
2019-02-18T15:59:13.105Z,25.03
2019-02-18T16:01:39.471Z,25.10
2019-02-18T16:04:08.340Z,25.76
2019-02-18T16:06:34.674Z,25.22
2019-02-18T16:09:01.043Z,24.92
2019-02-18T16:11:27.458Z,25.33
2019-02-18T16:13:53.753Z,25.12
2019-02-18T16:16:20.092Z,25.18
2019-02-18T16:18:46.439Z,25.25
2019-02-18T16:21:12.768Z,24.97
2019-02-18T16:23:39.098Z,24.83
2019-02-18T16:26:05.464Z,25.35
2019-02-18T16:28:31.797Z,24.98
2019-02-18T16:30:58.135Z,25.03
2019-02-18T16:33:24.503Z,25.47
2019-02-18T16:35:50.831Z,25.07
2019-02-18T16:38:17.211Z,24.70
2019-02-18T16:40:43.552Z,25.18
2019-02-18T16:43:09.923Z,24.82
2019-02-18T16:45:36.257Z,24.98
2019-02-18T16:48:02.587Z,24.79
2019-02-18T16:50:28.939Z,24.73
2019-02-18T16:52:55.277Z,24.64
2019-02-18T16:55:21.652Z,24.83
2019-02-18T16:57:47.989Z,24.35
2019-02-18T17:00:14.323Z,24.67
2019-02-18T17:02:40.660Z,24.51
2019-02-18T17:05:06.979Z,24.56
2019-02-18T17:07:33.362Z,24.54
2019-02-18T17:09:59.704Z,24.51
2019-02-18T17:12:26.053Z,24.65
2019-02-18T17:14:52.387Z,24.45
2019-02-18T17:17:18.771Z,24.07
2019-02-18T17:19:45.138Z,24.38
2019-02-18T17:22:11.568Z,24.44
2019-02-18T17:24:37.845Z,24.51
2019-02-18T17:27:04.261Z,24.51
2019-02-18T17:29:30.633Z,24.42
2019-02-18T17:31:57.223Z,24.25
2019-02-18T17:34:23.553Z,24.35
2019-02-18T17:36:49.879Z,24.32
2019-02-18T17:39:16.211Z,24.32
2019-02-18T17:41:42.592Z,23.90
2019-02-18T17:44:08.937Z,24.23
2019-02-18T17:46:35.291Z,23.62
2019-02-18T17:49:01.617Z,23.89
2019-02-18T17:51:27.947Z,24.10
2019-02-18T17:53:54.315Z,23.96
2019-02-18T17:56:20.682Z,23.90
2019-02-18T17:58:47.012Z,23.91
2019-02-18T18:01:13.386Z,23.94
2019-02-18T18:03:39.719Z,24.20
2019-02-18T18:06:06.041Z,24.28
2019-02-18T18:08:32.372Z,24.46
2019-02-18T18:10:58.696Z,24.47
2019-02-18T18:13:26.663Z,24.57
2019-02-18T18:15:51.399Z,24.59
2019-02-18T18:18:17.719Z,24.77
2019-02-18T18:20:44.055Z,24.75
2019-02-18T18:23:10.382Z,24.83
2019-02-18T18:25:36.734Z,24.80
2019-02-18T18:28:03.125Z,24.80
2019-02-18T18:30:29.448Z,24.80
2019-02-18T18:32:55.775Z,24.77
2019-02-18T18:35:22.106Z,24.83
2019-02-18T18:37:48.545Z,24.77
2019-02-18T18:40:14.911Z,24.71
2019-02-18T18:42:41.213Z,24.66
2019-02-18T18:45:07.548Z,24.64
2019-02-18T18:47:33.916Z,24.57
2019-02-18T18:50:00.353Z,24.68
2019-02-18T18:52:26.654Z,24.79
2019-02-18T18:54:52.993Z,24.70
2019-02-18T18:57:19.324Z,24.70
2019-02-18T18:59:45.655Z,24.69
2019-02-18T19:02:12.022Z,24.67
2019-02-18T19:04:38.352Z,24.57
2019-02-18T19:07:04.681Z,24.62
2019-02-18T19:09:31.092Z,24.68
2019-02-18T19:11:57.443Z,24.80
2019-02-18T19:14:23.785Z,24.85
2019-02-18T19:16:50.130Z,24.80
2019-02-18T19:19:16.456Z,24.60
2019-02-18T19:21:42.831Z,24.66
2019-02-18T19:24:09.250Z,24.70
2019-02-18T19:26:35.613Z,24.80
2019-02-18T19:29:01.946Z,24.90
2019-02-18T19:31:28.322Z,24.93
2019-02-18T19:33:54.654Z,24.87
2019-02-18T19:36:20.988Z,24.85
2019-02-18T19:38:47.316Z,24.87
2019-02-18T19:41:13.644Z,24.86
2019-02-18T19:43:39.980Z,24.87
2019-02-18T19:46:06.325Z,24.93
2019-02-18T19:48:32.689Z,25.01
2019-02-18T19:50:59.017Z,24.93
2019-02-18T19:53:25.356Z,25.07
2019-02-18T19:55:51.684Z,25.06
2019-02-18T19:58:18.059Z,25.02
2019-02-18T20:00:44.391Z,25.06
2019-02-18T20:03:10.721Z,25.07
2019-02-18T20:05:37.051Z,25.12
2019-02-18T20:08:03.386Z,25.15
2019-02-18T20:10:29.760Z,25.15
2019-02-18T20:12:56.093Z,25.22
2019-02-18T20:15:22.494Z,25.14
2019-02-18T20:17:48.838Z,25.13
2019-02-18T20:20:15.241Z,25.08
2019-02-18T20:22:41.565Z,25.14
2019-02-18T20:25:07.920Z,25.18
2019-02-18T20:27:34.269Z,25.22
2019-02-18T20:30:00.618Z,25.16
2019-02-18T20:32:26.955Z,25.23
2019-02-18T20:34:53.278Z,25.26
2019-02-18T20:37:19.651Z,25.33
2019-02-18T20:39:45.971Z,25.29
2019-02-18T20:42:12.302Z,25.39
2019-02-18T20:44:38.633Z,25.31
2019-02-18T20:47:04.962Z,25.38
2019-02-18T20:49:31.301Z,25.41
2019-02-18T20:51:57.699Z,25.41
2019-02-18T20:54:24.033Z,25.33
2019-02-18T20:56:50.378Z,25.30
2019-02-18T20:59:16.759Z,25.39
2019-02-18T21:01:43.035Z,25.29
2019-02-18T21:04:09.374Z,25.38
2019-02-18T21:06:35.764Z,25.49
2019-02-18T21:09:02.097Z,25.41
2019-02-18T21:11:28.418Z,25.38
2019-02-18T21:13:54.797Z,25.53
2019-02-18T21:16:21.186Z,25.48
2019-02-18T21:18:47.527Z,25.84
2019-02-18T21:21:13.854Z,25.85
2019-02-18T21:23:40.183Z,25.86
2019-02-18T21:26:06.534Z,25.92
2019-02-18T21:28:32.902Z,26.05
2019-02-18T21:30:59.340Z,26.21
2019-02-18T21:33:25.667Z,26.36
2019-02-18T21:35:52.001Z,26.47
2019-02-18T21:38:18.330Z,26.59
2019-02-18T21:40:44.727Z,26.79
2019-02-18T21:43:11.130Z,26.79
2019-02-18T21:45:38.871Z,26.96
2019-02-18T21:48:03.881Z,27.06
2019-02-18T21:50:30.202Z,27.03
2019-02-18T21:52:56.538Z,27.04
2019-02-18T21:55:22.877Z,26.98
2019-02-18T21:57:49.208Z,27.10
2019-02-18T22:00:15.647Z,27.22
2019-02-18T22:02:41.940Z,27.16
2019-02-18T22:05:08.314Z,27.21
2019-02-18T22:07:34.661Z,27.31
2019-02-18T22:10:00.989Z,27.42
2019-02-18T22:12:27.503Z,27.48
2019-02-18T22:14:53.829Z,27.36
2019-02-18T22:17:20.172Z,27.25
2019-02-18T22:19:46.515Z,27.37
2019-02-18T22:22:12.879Z,27.55
2019-02-18T22:24:39.200Z,27.54
2019-02-18T22:27:05.584Z,27.60
2019-02-18T22:29:31.914Z,27.55
2019-02-18T22:31:58.270Z,27.75
2019-02-18T22:34:24.612Z,27.63
2019-02-18T22:36:50.942Z,27.75
2019-02-18T22:39:17.267Z,27.79
2019-02-18T22:41:43.609Z,27.88
2019-02-18T22:44:09.945Z,27.79
2019-02-18T22:46:36.302Z,27.88
2019-02-18T22:49:02.702Z,27.87
2019-02-18T22:51:29.034Z,27.88
2019-02-18T22:53:55.343Z,28.07
2019-02-18T22:56:21.711Z,28.06
2019-02-18T22:58:48.042Z,28.05
2019-02-18T23:01:14.413Z,28.03
2019-02-18T23:03:40.839Z,28.07
2019-02-18T23:06:07.176Z,28.06
2019-02-18T23:08:33.502Z,28.11
2019-02-18T23:10:59.837Z,28.24
2019-02-18T23:13:26.212Z,28.31
2019-02-18T23:15:52.575Z,28.31
2019-02-18T23:18:18.907Z,28.33
2019-02-18T23:20:45.244Z,28.35
2019-02-18T23:23:11.567Z,28.31
2019-02-18T23:25:37.894Z,28.28
2019-02-18T23:28:04.355Z,28.40
2019-02-18T23:30:30.679Z,28.36
2019-02-18T23:32:57.012Z,28.40
2019-02-18T23:35:23.343Z,28.43
2019-02-18T23:37:49.672Z,28.46
2019-02-18T23:40:16.053Z,28.59
2019-02-18T23:42:42.386Z,28.63
2019-02-18T23:45:08.720Z,28.54
2019-02-18T23:47:35.062Z,28.60
2019-02-18T23:50:01.450Z,28.60
2019-02-18T23:52:27.747Z,28.66
2019-02-18T23:54:54.094Z,28.72
2019-02-18T23:57:20.414Z,28.75
2019-02-18T23:59:46.818Z,28.82
